Time;durP1;ratioP1;P1;durP2;ratioP2;P2;SDS_P1;SDS_P2;PMS_P1;PMS_P2;Temp;Humidity;BMP_temperature;BMP_pressure;BME280_temperature;BME280_humidity;BME280_pressure;Samples;Min_cycle;Max_cycle;Signal;HPM_P1;HPM_P2
2022/04/04 00:00:52;;;;;;;3.93;1.97;;;3.90;99.90;;;;;;5034450;28;20467;-66
2022/04/04 00:03:20;;;;;;;5.70;2.50;;;3.90;99.90;;;;;;5035297;28;21013;-66
2022/04/04 00:05:49;;;;;;;3.60;1.97;;;3.80;99.90;;;;;;5032464;28;20605;-66
2022/04/04 00:08:18;;;;;;;5.33;2.03;;;3.90;99.90;;;;;;5032668;28;20532;-66
2022/04/04 00:10:46;;;;;;;4.90;2.10;;;3.90;99.90;;;;;;5034066;28;20992;-66
2022/04/04 00:13:14;;;;;;;3.97;2.00;;;3.90;99.90;;;;;;5032438;28;20475;-66
2022/04/04 00:15:43;;;;;;;3.77;2.27;;;3.90;99.90;;;;;;5032288;28;21008;-66
2022/04/04 00:18:13;;;;;;;5.70;2.50;;;3.80;99.90;;;;;;5040430;28;20505;-66
2022/04/04 00:20:41;;;;;;;5.80;2.30;;;3.80;99.90;;;;;;5031712;28;21022;-66
2022/04/04 00:23:12;;;;;;;4.90;2.20;;;3.80;99.90;;;;;;5034343;28;20470;-66
2022/04/04 00:25:41;;;;;;;5.00;2.27;;;3.80;99.90;;;;;;5026046;28;20513;-66
2022/04/04 00:28:09;;;;;;;5.23;2.43;;;3.80;99.90;;;;;;5032113;28;20456;-66
2022/04/04 00:30:38;;;;;;;3.90;2.30;;;3.80;99.90;;;;;;5032186;28;20559;-66
2022/04/04 00:33:07;;;;;;;4.77;2.63;;;3.80;99.90;;;;;;5032244;28;20535;-66
2022/04/04 00:35:37;;;;;;;3.53;1.90;;;3.80;99.90;;;;;;5032019;28;21006;-66
2022/04/04 00:38:08;;;;;;;4.40;2.33;;;3.80;99.90;;;;;;5032215;28;20531;-66
2022/04/04 00:40:36;;;;;;;2.03;1.83;;;3.80;99.90;;;;;;5033579;28;20481;-66
2022/04/04 00:43:05;;;;;;;4.30;2.07;;;3.90;99.90;;;;;;5033365;28;20455;-66
2022/04/04 00:45:33;;;;;;;3.70;2.30;;;3.90;99.90;;;;;;5032594;28;20490;-66
2022/04/04 00:48:01;;;;;;;3.67;2.33;;;3.80;99.90;;;;;;5031968;28;20464;-66
2022/04/04 00:50:29;;;;;;;4.63;2.40;;;3.80;99.90;;;;;;5029200;28;20468;-66
2022/04/04 00:53:01;;;;;;;4.73;2.30;;;3.80;99.90;;;;;;5026169;28;20469;-66
2022/04/04 00:55:29;;;;;;;5.73;2.20;;;3.70;99.90;;;;;;5031606;28;20981;-66
2022/04/04 00:57:57;;;;;;;3.30;2.27;;;3.70;99.90;;;;;;5017333;28;20467;-66
2022/04/04 01:00:26;;;;;;;6.07;2.60;;;3.70;99.90;;;;;;5023398;28;20464;-66
2022/04/04 01:02:55;;;;;;;4.87;2.77;;;3.70;99.90;;;;;;5011035;28;20522;-66
2022/04/04 01:05:23;;;;;;;5.47;2.70;;;3.80;99.90;;;;;;5013769;28;20481;-66
2022/04/04 01:07:51;;;;;;;5.20;2.80;;;3.70;99.90;;;;;;5018152;28;20504;-66
2022/04/04 01:10:20;;;;;;;5.23;2.53;;;3.70;99.90;;;;;;5024456;28;20464;-66
2022/04/04 01:12:55;;;;;;;7.10;3.10;;;3.70;99.90;;;;;;5031610;28;20478;-66
2022/04/04 01:15:26;;;;;;;3.40;2.70;;;3.70;99.90;;;;;;5047232;28;20526;-66
2022/04/04 01:17:54;;;;;;;3.60;2.73;;;3.60;99.90;;;;;;5047543;28;20826;-66
2022/04/04 01:20:22;;;;;;;4.40;2.90;;;3.60;99.90;;;;;;5050782;28;20473;-66
2022/04/04 01:22:50;;;;;;;4.30;2.73;;;3.60;99.90;;;;;;5050096;28;20549;-66
2022/04/04 01:25:25;;;;;;;3.90;2.80;;;3.60;99.90;;;;;;5048122;28;20948;-66
2022/04/04 01:27:55;;;;;;;6.83;3.07;;;3.60;99.90;;;;;;5047234;28;20495;-66
2022/04/04 01:30:25;;;;;;;3.57;3.10;;;3.60;99.90;;;;;;5050916;28;20466;-66
2022/04/04 01:32:55;;;;;;;5.90;3.33;;;3.60;99.90;;;;;;5051393;28;20480;-66
2022/04/04 01:35:24;;;;;;;6.90;3.47;;;3.50;99.90;;;;;;5050682;28;20480;-66
2022/04/04 01:37:52;;;;;;;4.73;3.03;;;3.60;99.90;;;;;;5051155;28;20869;-66
2022/04/04 01:40:20;;;;;;;5.20;2.67;;;3.60;99.90;;;;;;5050577;28;20536;-66
2022/04/04 01:42:52;;;;;;;3.50;2.80;;;3.60;99.90;;;;;;5050141;28;20473;-65
2022/04/04 01:46:23;;;;;;;4.57;3.10;;;3.50;99.90;;;;;;5047992;28;20506;-66
2022/04/04 01:48:10;;;;;;;4.00;2.93;;;3.50;99.90;;;;;;5049044;28;20561;-66
2022/04/04 01:50:39;;;;;;;4.10;3.20;;;3.50;99.90;;;;;;5044282;28;20476;-66
2022/04/04 01:55:54;;;;;;;6.03;2.70;;;3.50;99.90;;;;;;5050386;28;20549;-66
2022/04/04 01:58:24;;;;;;;7.00;3.30;;;3.50;99.90;;;;;;5050761;28;20477;-66
2022/04/04 02:00:56;;;;;;;5.70;3.30;;;3.50;99.90;;;;;;5046662;28;20891;-66
2022/04/04 02:03:25;;;;;;;3.30;3.00;;;3.50;99.90;;;;;;5040200;28;20867;-66
2022/04/04 02:05:54;;;;;;;7.03;3.17;;;3.50;99.90;;;;;;5032371;28;20483;-66
2022/04/04 02:08:22;;;;;;;4.07;3.10;;;3.50;99.90;;;;;;5030766;28;20488;-66
2022/04/04 02:10:50;;;;;;;6.57;3.20;;;3.50;99.90;;;;;;5030386;28;20486;-66
2022/04/04 02:13:18;;;;;;;4.67;2.70;;;3.40;99.90;;;;;;5030346;28;20827;-67
2022/04/04 02:15:49;;;;;;;3.30;2.90;;;3.50;99.90;;;;;;5030068;28;20480;-66
2022/04/04 02:18:17;;;;;;;5.63;3.13;;;3.50;99.90;;;;;;5038585;28;20811;-66
2022/04/04 02:20:45;;;;;;;3.60;2.83;;;3.50;99.90;;;;;;5035023;28;20529;-66
2022/04/04 02:23:17;;;;;;;4.10;2.77;;;3.40;99.90;;;;;;5032443;28;20486;-66
2022/04/04 02:25:48;;;;;;;5.20;3.33;;;3.40;99.90;;;;;;5030192;28;20470;-66
2022/04/04 02:28:16;;;;;;;4.37;2.70;;;3.40;99.90;;;;;;5030506;28;20575;-66
2022/04/04 02:30:49;;;;;;;5.50;2.90;;;3.50;99.90;;;;;;5031766;28;20481;-65
2022/04/04 02:33:19;;;;;;;6.30;3.40;;;3.50;99.90;;;;;;5030587;28;20465;-66
2022/04/04 02:35:50;;;;;;;4.33;2.73;;;3.50;99.90;;;;;;5034072;28;20483;-66
2022/04/04 02:38:19;;;;;;;4.37;3.03;;;3.50;99.90;;;;;;5034267;28;20461;-66
2022/04/04 02:40:47;;;;;;;4.47;3.10;;;3.50;99.90;;;;;;5035509;28;20836;-66
2022/04/04 02:43:16;;;;;;;4.27;2.90;;;3.50;99.90;;;;;;5036504;28;20897;-66
2022/04/04 02:45:45;;;;;;;3.90;2.63;;;3.50;99.90;;;;;;5033927;28;20476;-66
2022/04/04 02:48:15;;;;;;;4.53;2.63;;;3.50;99.90;;;;;;5042269;28;20507;-65
2022/04/04 02:50:45;;;;;;;5.07;3.17;;;3.50;99.90;;;;;;5033767;28;20478;-66
2022/04/04 02:53:14;;;;;;;4.17;3.10;;;3.50;99.90;;;;;;5033914;28;20840;-65
2022/04/04 02:58:27;;;;;;;5.53;3.27;;;3.50;99.90;;;;;;5033570;28;20554;-66
2022/04/04 03:00:56;;;;;;;5.20;3.30;;;3.60;99.90;;;;;;5034296;28;20472;-66
2022/04/04 03:03:24;;;;;;;4.63;3.30;;;3.60;99.90;;;;;;5033453;28;20525;-66
2022/04/04 03:05:54;;;;;;;5.80;3.40;;;3.60;99.90;;;;;;5048033;28;20478;-65
2022/04/04 03:08:22;;;;;;;4.90;3.00;;;3.60;99.90;;;;;;5049377;28;20466;-66
2022/04/04 03:10:51;;;;;;;4.30;3.00;;;3.60;99.90;;;;;;5051354;28;20833;-66
2022/04/04 03:13:19;;;;;;;4.70;3.00;;;3.60;99.90;;;;;;5053345;28;20866;-66
2022/04/04 03:15:47;;;;;;;4.07;2.80;;;3.50;99.90;;;;;;5048582;28;20471;-66
2022/04/04 03:18:15;;;;;;;4.37;3.10;;;3.50;99.90;;;;;;5050428;28;20898;-66
2022/04/04 03:20:49;;;;;;;5.40;3.33;;;3.60;99.90;;;;;;5048208;28;20512;-66
2022/04/04 03:23:19;;;;;;;4.37;3.10;;;3.50;99.90;;;;;;5052612;28;20461;-66
2022/04/04 03:25:47;;;;;;;6.27;3.10;;;3.60;99.90;;;;;;5048232;28;20472;-66
2022/04/04 03:28:16;;;;;;;4.00;3.33;;;3.50;99.90;;;;;;5050277;28;20508;-66
2022/04/04 03:30:44;;;;;;;3.77;3.43;;;3.50;99.90;;;;;;5048766;28;20477;-66
2022/04/04 03:33:12;;;;;;;4.00;3.07;;;3.50;99.90;;;;;;5049655;28;20481;-66
2022/04/04 03:35:40;;;;;;;3.57;3.03;;;3.50;99.90;;;;;;5048851;28;20470;-65
2022/04/04 03:38:10;;;;;;;4.30;3.10;;;3.50;99.90;;;;;;5049208;28;20494;-66
2022/04/04 03:40:41;;;;;;;4.30;3.47;;;3.60;99.90;;;;;;5049295;28;20560;-66
2022/04/04 03:43:09;;;;;;;6.13;3.80;;;3.60;99.90;;;;;;5048576;28;20509;-66
2022/04/04 03:45:37;;;;;;;4.40;3.30;;;3.60;99.90;;;;;;5048760;28;20467;-66
2022/04/04 03:48:06;;;;;;;3.90;3.10;;;3.60;99.90;;;;;;5048355;28;20508;-66
2022/04/04 03:50:35;;;;;;;4.53;3.70;;;3.60;99.90;;;;;;5052310;28;20485;-66
2022/04/04 03:53:04;;;;;;;4.47;3.30;;;3.70;99.90;;;;;;5052653;28;20478;-66
2022/04/04 03:55:35;;;;;;;5.80;3.30;;;3.70;99.90;;;;;;5049865;28;20988;-66
2022/04/04 03:58:05;;;;;;;4.40;3.17;;;3.70;99.90;;;;;;5048112;28;20484;-66
2022/04/04 04:00:33;;;;;;;5.23;3.37;;;3.70;99.90;;;;;;5049525;28;20482;-66
2022/04/04 04:03:02;;;;;;;5.40;3.50;;;3.70;99.90;;;;;;5047116;28;20515;-66
2022/04/04 04:05:30;;;;;;;5.53;3.47;;;3.70;99.90;;;;;;5049786;28;20470;-66
2022/04/04 04:07:58;;;;;;;5.87;3.27;;;3.70;99.90;;;;;;5046950;28;20511;-66
2022/04/04 04:10:26;;;;;;;7.63;3.90;;;3.70;99.90;;;;;;5050674;28;20456;-66
2022/04/04 04:12:55;;;;;;;5.00;3.53;;;3.80;99.90;;;;;;5046818;28;20474;-66
2022/04/04 04:15:25;;;;;;;5.70;3.70;;;3.80;99.90;;;;;;5050905;28;20493;-66
2022/04/04 04:17:54;;;;;;;4.90;3.57;;;3.80;99.90;;;;;;5046540;28;20469;-66
2022/04/04 04:20:25;;;;;;;5.10;3.73;;;3.70;99.90;;;;;;5051824;28;20494;-66
2022/04/04 04:22:56;;;;;;;4.70;3.80;;;3.80;99.90;;;;;;5052002;28;20492;-66
2022/04/04 04:25:28;;;;;;;6.40;4.10;;;3.80;99.90;;;;;;5050534;28;20474;-65
2022/04/04 04:27:57;;;;;;;4.40;3.90;;;3.80;99.90;;;;;;5046220;28;20538;-66
2022/04/04 04:30:27;;;;;;;8.07;4.70;;;3.80;99.90;;;;;;5050523;28;20479;-66
2022/04/04 04:32:57;;;;;;;8.23;4.53;;;3.80;99.90;;;;;;5046472;28;21014;-66
2022/04/04 04:35:25;;;;;;;6.33;4.50;;;3.80;99.90;;;;;;5050233;28;20978;-66
2022/04/04 04:37:54;;;;;;;5.67;4.53;;;3.80;99.90;;;;;;5046036;28;20493;-66
2022/04/04 04:40:23;;;;;;;7.17;4.33;;;3.80;99.90;;;;;;5050615;28;20470;-66
2022/04/04 04:42:52;;;;;;;10.67;4.67;;;3.80;99.90;;;;;;5045250;28;20485;-66
2022/04/04 04:45:21;;;;;;;7.90;5.30;;;3.80;99.90;;;;;;5048050;28;20468;-65
2022/04/04 04:47:51;;;;;;;6.47;5.10;;;3.80;99.90;;;;;;5045034;28;20554;-66
2022/04/04 04:50:22;;;;;;;7.77;5.00;;;3.80;99.90;;;;;;5051257;28;20552;-65
2022/04/04 04:52:51;;;;;;;6.43;4.90;;;3.80;99.90;;;;;;5051761;28;20561;-66
2022/04/04 04:55:20;;;;;;;6.63;5.50;;;3.80;99.90;;;;;;5050747;28;20471;-66
2022/04/04 04:57:50;;;;;;;8.13;5.77;;;3.90;99.90;;;;;;5043827;28;20465;-66
2022/04/04 05:00:21;;;;;;;10.97;6.07;;;3.90;99.90;;;;;;5050631;28;20467;-66
2022/04/04 05:03:24;;;;;;;9.00;5.77;;;3.90;99.90;;;;;;5044490;28;20461;-65
2022/04/04 05:05:42;;;;;;;9.67;6.07;;;3.90;99.90;;;;;;5049557;28;20555;-66
2022/04/04 05:08:10;;;;;;;8.83;6.70;;;3.90;99.90;;;;;;5031431;28;20476;-66
2022/04/04 05:10:38;;;;;;;7.53;6.47;;;3.90;99.90;;;;;;5031129;28;20513;-66
2022/04/04 05:13:06;;;;;;;9.70;6.70;;;3.90;99.90;;;;;;5031317;28;20479;-66
2022/04/04 05:15:35;;;;;;;7.73;6.00;;;4.00;99.90;;;;;;5031051;28;20568;-66
2022/04/04 05:18:04;;;;;;;8.63;6.90;;;3.90;99.90;;;;;;5031173;28;20484;-64
2022/04/04 05:20:32;;;;;;;10.50;7.03;;;4.00;99.90;;;;;;5030678;28;20573;-66
2022/04/04 05:23:00;;;;;;;9.20;7.77;;;4.00;99.90;;;;;;5043655;28;20509;-66
2022/04/04 05:25:28;;;;;;;10.07;7.23;;;4.00;99.90;;;;;;5048403;28;20461;-66
2022/04/04 05:27:57;;;;;;;11.27;7.73;;;4.00;99.90;;;;;;5045554;28;20476;-66
2022/04/04 05:30:25;;;;;;;8.97;7.93;;;4.00;99.90;;;;;;5049376;28;20499;-66
2022/04/04 05:32:55;;;;;;;10.37;8.47;;;4.00;99.90;;;;;;5044918;28;20477;-66
2022/04/04 05:35:24;;;;;;;10.70;8.00;;;4.00;99.90;;;;;;5049392;28;20470;-66
2022/04/04 05:37:54;;;;;;;11.07;8.23;;;4.00;99.90;;;;;;5045040;28;20501;-66
2022/04/04 05:40:26;;;;;;;11.17;9.20;;;4.00;99.90;;;;;;5049075;28;21051;-66
2022/04/04 05:42:55;;;;;;;11.93;8.80;;;3.90;99.90;;;;;;5044419;28;20484;-65
2022/04/04 05:45:23;;;;;;;11.97;9.47;;;3.90;99.90;;;;;;5049030;28;20558;-66
2022/04/04 05:47:52;;;;;;;13.47;9.83;;;4.00;99.90;;;;;;5039669;28;20584;-66
2022/04/04 05:50:20;;;;;;;13.67;9.73;;;4.00;99.90;;;;;;5050018;28;20473;-66
2022/04/04 05:52:50;;;;;;;15.63;10.17;;;3.90;99.90;;;;;;5050613;28;20478;-65
2022/04/04 05:55:18;;;;;;;15.07;10.40;;;3.90;99.90;;;;;;5050463;28;20478;-66
2022/04/04 05:57:47;;;;;;;13.87;10.80;;;3.90;99.90;;;;;;5050297;28;20468;-66
2022/04/04 06:00:16;;;;;;;12.67;10.00;;;4.00;99.90;;;;;;5051666;28;20854;-66
2022/04/04 06:02:46;;;;;;;14.53;11.03;;;4.00;99.90;;;;;;5050440;28;20527;-66
2022/04/04 06:05:15;;;;;;;15.30;12.03;;;4.00;99.90;;;;;;5050402;28;20482;-66
2022/04/04 06:07:44;;;;;;;16.57;11.67;;;4.00;99.90;;;;;;5049932;28;21134;-66
2022/04/04 06:10:15;;;;;;;14.20;11.17;;;4.00;99.90;;;;;;5059615;28;20477;-66
2022/04/04 06:12:44;;;;;;;16.90;11.07;;;4.00;99.90;;;;;;5042553;28;20489;-65
2022/04/04 06:15:14;;;;;;;14.63;12.20;;;4.00;99.90;;;;;;5049889;28;20837;-65
2022/04/04 06:17:44;;;;;;;17.23;12.83;;;4.00;99.90;;;;;;5050143;28;20813;-66
2022/04/04 06:20:13;;;;;;;15.43;12.20;;;4.00;99.90;;;;;;5050052;28;20535;-65
2022/04/04 06:22:41;;;;;;;17.03;12.83;;;4.00;99.90;;;;;;5042518;28;20482;-65
2022/04/04 06:25:12;;;;;;;17.77;13.63;;;4.00;99.90;;;;;;5045647;28;20908;-65
2022/04/04 06:27:42;;;;;;;17.10;13.03;;;4.00;99.90;;;;;;5042439;28;21013;-65
2022/04/04 06:30:11;;;;;;;18.50;13.87;;;4.00;99.90;;;;;;5049519;28;20512;-65
2022/04/04 06:32:42;;;;;;;18.10;13.33;;;4.00;99.90;;;;;;5042127;28;20895;-65
2022/04/04 06:35:10;;;;;;;17.07;13.57;;;4.00;99.90;;;;;;5049518;28;20481;-65
2022/04/04 06:37:38;;;;;;;17.27;14.30;;;4.00;99.90;;;;;;5046787;28;20995;-65
2022/04/04 06:40:08;;;;;;;18.47;14.30;;;4.00;99.90;;;;;;5047098;28;20528;-65
2022/04/04 06:42:36;;;;;;;18.47;15.10;;;4.00;99.90;;;;;;5045645;28;20557;-65
2022/04/04 06:45:08;;;;;;;20.73;14.57;;;4.00;99.90;;;;;;5049773;28;20473;-65
2022/04/04 06:47:37;;;;;;;18.53;14.60;;;4.00;99.90;;;;;;5040960;28;20469;-65
2022/04/04 06:50:06;;;;;;;17.47;13.83;;;4.00;99.90;;;;;;5049209;28;20473;-65
2022/04/04 06:52:34;;;;;;;20.23;15.77;;;4.00;99.90;;;;;;5041460;28;20511;-65
2022/04/04 06:55:03;;;;;;;19.70;14.83;;;4.00;99.90;;;;;;5038647;28;20498;-65
2022/04/04 06:57:31;;;;;;;17.87;14.17;;;4.00;99.90;;;;;;5039104;28;20473;-65
2022/04/04 07:00:02;;;;;;;17.17;14.80;;;3.90;99.90;;;;;;5044313;28;20563;-65
2022/04/04 07:02:34;;;;;;;19.33;15.90;;;3.90;99.90;;;;;;5041339;28;20442;-65
2022/04/04 07:05:04;;;;;;;18.17;13.13;;;3.90;99.90;;;;;;5039787;28;20465;-65
2022/04/04 07:07:33;;;;;;;17.87;14.83;;;3.90;99.90;;;;;;5041247;28;20891;-65
2022/04/04 07:10:01;;;;;;;16.93;14.73;;;3.90;99.90;;;;;;5049503;28;20540;-65
2022/04/04 07:12:29;;;;;;;17.77;15.70;;;3.90;99.90;;;;;;5041150;28;20473;-65
2022/04/04 07:14:58;;;;;;;20.13;15.53;;;3.90;99.90;;;;;;5051055;28;20511;-65
2022/04/04 07:17:26;;;;;;;18.33;15.43;;;3.90;99.90;;;;;;5037007;28;20478;-65
2022/04/04 07:19:55;;;;;;;18.10;15.03;;;3.90;99.90;;;;;;5042249;28;20468;-65
2022/04/04 07:22:24;;;;;;;14.30;12.00;;;3.80;99.90;;;;;;5043580;28;20469;-65
2022/04/04 07:24:52;;;;;;;20.50;14.33;;;3.90;99.90;;;;;;5053268;28;20534;-65
2022/04/04 07:27:20;;;;;;;17.87;14.30;;;3.90;99.90;;;;;;5044868;28;20473;-65
2022/04/04 07:29:48;;;;;;;16.80;14.93;;;3.90;99.90;;;;;;5052671;28;20444;-65
2022/04/04 07:32:17;;;;;;;17.93;13.40;;;3.90;99.90;;;;;;5051685;28;20694;-65
2022/04/04 07:34:50;;;;;;;16.77;13.33;;;3.90;99.90;;;;;;5053061;28;20238;-65
2022/04/04 07:37:19;;;;;;;16.20;13.10;;;4.00;99.90;;;;;;5039326;28;20467;-65
2022/04/04 07:39:47;;;;;;;16.13;13.77;;;4.00;99.90;;;;;;5039602;28;20473;-65
2022/04/04 07:42:16;;;;;;;17.10;12.13;;;4.00;99.90;;;;;;5049748;28;20466;-65
2022/04/04 07:44:44;;;;;;;15.50;13.33;;;4.00;99.90;;;;;;5050462;28;20501;-65
2022/04/04 07:47:12;;;;;;;15.80;14.00;;;4.00;99.90;;;;;;5039057;28;20531;-65
2022/04/04 07:49:40;;;;;;;14.60;12.40;;;3.90;99.90;;;;;;5048638;28;20476;-65
2022/04/04 07:52:09;;;;;;;15.10;12.57;;;3.90;99.90;;;;;;5046111;28;20914;-65
2022/04/04 07:54:38;;;;;;;14.73;13.23;;;4.00;99.90;;;;;;5049023;28;20481;-65
2022/04/04 07:57:06;;;;;;;16.13;12.63;;;4.00;99.90;;;;;;5047312;28;20485;-65
2022/04/04 07:59:34;;;;;;;17.07;13.27;;;4.00;99.90;;;;;;5050326;28;20483;-65
2022/04/04 08:02:03;;;;;;;15.63;13.93;;;4.00;99.90;;;;;;5050639;28;20478;-65
2022/04/04 08:04:31;;;;;;;15.70;12.67;;;4.00;99.90;;;;;;5046295;28;20874;-65
2022/04/04 08:06:59;;;;;;;15.57;13.90;;;4.00;99.90;;;;;;5052489;28;20477;-64
2022/04/04 08:09:28;;;;;;;15.47;13.93;;;4.00;99.90;;;;;;5052383;28;20470;-65
2022/04/04 08:11:57;;;;;;;15.53;13.50;;;4.10;99.90;;;;;;5048577;28;20471;-65
2022/04/04 08:14:26;;;;;;;15.67;13.90;;;4.10;99.90;;;;;;5051840;28;20986;-65
2022/04/04 08:16:54;;;;;;;17.10;14.83;;;4.10;99.90;;;;;;5035948;28;20455;-65
2022/04/04 08:19:22;;;;;;;14.40;13.00;;;4.20;99.90;;;;;;5051992;28;20479;-65
2022/04/04 08:21:50;;;;;;;15.20;13.60;;;4.20;99.90;;;;;;5053288;28;20461;-65
2022/04/04 08:24:20;;;;;;;15.87;14.20;;;4.20;99.90;;;;;;5052144;28;20632;-65
2022/04/04 08:26:48;;;;;;;15.33;13.57;;;4.20;99.90;;;;;;5047152;28;20833;-65
2022/04/04 08:29:18;;;;;;;14.70;13.27;;;4.20;99.90;;;;;;5034241;28;20556;-65
2022/04/04 08:31:46;;;;;;;15.60;13.97;;;4.20;99.90;;;;;;5051700;28;21207;-65
2022/04/04 08:34:14;;;;;;;14.27;12.80;;;4.20;99.90;;;;;;5051343;28;20488;-64
2022/04/04 08:36:43;;;;;;;16.37;14.00;;;4.20;99.90;;;;;;5043328;28;20465;-65
2022/04/04 08:39:11;;;;;;;16.00;14.20;;;4.20;99.90;;;;;;5051623;28;20485;-66
2022/04/04 08:41:39;;;;;;;14.50;13.10;;;4.20;99.90;;;;;;5043450;28;20501;-65
2022/04/04 08:44:07;;;;;;;14.57;11.43;;;4.20;99.90;;;;;;5032936;28;20996;-65
2022/04/04 08:46:38;;;;;;;14.40;12.20;;;4.20;99.90;;;;;;5051504;28;20525;-65
2022/04/04 08:49:06;;;;;;;17.10;13.87;;;4.30;99.90;;;;;;5051406;28;20520;-66
2022/04/04 08:51:36;;;;;;;13.23;11.63;;;4.30;99.90;;;;;;5043324;28;20545;-65
2022/04/04 08:54:05;;;;;;;14.27;11.63;;;4.30;99.90;;;;;;5051207;28;20474;-66
2022/04/04 08:56:34;;;;;;;13.67;12.27;;;4.30;99.90;;;;;;5043085;28;20483;-65
2022/04/04 08:59:02;;;;;;;14.33;12.60;;;4.40;99.90;;;;;;5051730;28;20490;-65
2022/04/04 09:01:30;;;;;;;14.10;12.60;;;4.30;99.90;;;;;;5047903;28;20482;-65
2022/04/04 09:04:17;;;;;;;12.80;11.50;;;4.40;99.90;;;;;;5031735;28;20470;-65
2022/04/04 09:06:50;;;;;;;14.30;11.87;;;4.40;99.90;;;;;;5044201;28;20487;-65
2022/04/04 09:09:24;;;;;;;12.00;10.33;;;4.40;99.90;;;;;;5051060;28;20531;-65
2022/04/04 09:12:04;;;;;;;10.70;9.47;;;4.40;99.90;;;;;;5043117;28;20502;-66
2022/04/04 09:14:37;;;;;;;11.10;9.30;;;4.50;99.90;;;;;;5047032;28;20486;-65
2022/04/04 09:17:08;;;;;;;9.07;8.00;;;4.50;99.90;;;;;;5044376;28;20473;-65
2022/04/04 09:19:38;;;;;;;12.67;9.37;;;4.50;99.90;;;;;;5047390;28;20478;-66
2022/04/04 09:22:08;;;;;;;11.87;10.67;;;4.50;99.90;;;;;;5038555;28;20478;-66
2022/04/04 09:24:48;;;;;;;12.17;10.47;;;4.50;99.90;;;;;;5050857;28;20486;-65
2022/04/04 09:27:22;;;;;;;11.80;10.63;;;4.50;99.90;;;;;;5047494;28;20478;-66
2022/04/04 09:29:53;;;;;;;11.50;10.30;;;4.50;99.90;;;;;;5060624;28;20819;-66
2022/04/04 09:32:21;;;;;;;14.67;10.60;;;4.60;99.90;;;;;;5042467;28;20538;-66
2022/04/04 09:35:04;;;;;;;10.80;9.50;;;4.50;99.90;;;;;;5050345;28;20474;-65
2022/04/04 09:37:34;;;;;;;12.03;9.87;;;4.50;99.90;;;;;;5042272;28;20493;-65
2022/04/04 09:40:07;;;;;;;10.93;9.83;;;4.50;99.90;;;;;;5050751;28;20528;-65
2022/04/04 09:42:42;;;;;;;13.47;11.03;;;4.60;99.90;;;;;;5042659;28;20466;-64
2022/04/04 09:45:12;;;;;;;10.53;8.70;;;4.60;99.90;;;;;;5050699;28;21001;-65
2022/04/04 09:47:52;;;;;;;13.30;11.40;;;4.60;99.90;;;;;;5042880;28;20500;-65
2022/04/04 09:50:34;;;;;;;9.67;8.23;;;4.60;99.90;;;;;;5049223;28;20555;-65
2022/04/04 09:53:11;;;;;;;11.77;10.57;;;4.60;99.90;;;;;;5046182;28;20477;-65
2022/04/04 09:55:41;;;;;;;11.93;9.23;;;4.60;99.90;;;;;;5044055;28;20568;-65
2022/04/04 09:58:14;;;;;;;13.63;10.90;;;4.60;99.90;;;;;;5034488;28;20890;-65
2022/04/04 10:00:44;;;;;;;12.53;11.33;;;4.50;99.90;;;;;;5045529;28;20478;-65
2022/04/04 10:03:13;;;;;;;13.43;11.87;;;4.60;99.90;;;;;;5050531;28;20557;-65
2022/04/04 10:05:46;;;;;;;12.30;11.10;;;4.50;99.90;;;;;;5046237;28;20532;-65
2022/04/04 10:08:16;;;;;;;13.77;12.20;;;4.50;99.90;;;;;;5047249;28;20884;-65
2022/04/04 10:10:44;;;;;;;10.80;9.70;;;4.60;99.90;;;;;;5045763;28;20467;-65
2022/04/04 10:13:14;;;;;;;12.40;11.10;;;4.50;99.90;;;;;;5046331;28;20478;-65
2022/04/04 10:15:43;;;;;;;12.13;10.53;;;4.50;99.90;;;;;;5045784;28;20887;-65
2022/04/04 10:18:11;;;;;;;13.07;11.77;;;4.50;99.90;;;;;;5046798;28;20529;-65
2022/04/04 10:20:42;;;;;;;13.03;11.73;;;4.50;99.90;;;;;;5040767;28;20585;-65
2022/04/04 10:23:13;;;;;;;14.30;12.00;;;4.50;99.90;;;;;;5034231;28;20467;-65
2022/04/04 10:25:42;;;;;;;12.67;11.33;;;4.50;99.90;;;;;;5044070;28;20572;-66
2022/04/04 10:28:10;;;;;;;13.73;12.13;;;4.50;99.90;;;;;;5048660;28;20482;-66
2022/04/04 10:30:41;;;;;;;14.33;12.33;;;4.60;99.90;;;;;;5046988;28;20836;-65
2022/04/04 10:33:19;;;;;;;14.37;12.23;;;4.60;99.90;;;;;;5047351;28;20564;-65
2022/04/04 10:36:01;;;;;;;14.33;12.00;;;4.50;99.90;;;;;;5024540;28;20484;-65
2022/04/04 10:38:32;;;;;;;13.23;11.83;;;4.60;99.90;;;;;;5034692;28;20478;-65
2022/04/04 10:41:03;;;;;;;13.97;12.60;;;4.50;99.90;;;;;;5041415;28;20474;-66
2022/04/04 10:43:33;;;;;;;13.40;12.10;;;4.60;99.90;;;;;;5035191;28;20482;-65
2022/04/04 10:46:04;;;;;;;16.90;13.17;;;4.60;99.90;;;;;;5045267;28;20525;-66
2022/04/04 10:48:35;;;;;;;14.07;12.57;;;4.50;99.90;;;;;;5042298;28;20998;-65
2022/04/04 10:51:10;;;;;;;13.27;11.87;;;4.60;99.90;;;;;;5040030;28;20558;-65
2022/04/04 10:53:43;;;;;;;12.07;10.87;;;4.60;99.90;;;;;;5044798;28;20502;-65
2022/04/04 10:56:18;;;;;;;13.97;11.93;;;4.70;99.90;;;;;;5041138;28;20515;-65
2022/04/04 10:58:46;;;;;;;14.70;13.20;;;4.60;99.90;;;;;;5046601;28;20475;-65
2022/04/04 11:01:18;;;;;;;13.97;12.47;;;4.60;99.90;;;;;;5048021;28;20478;-65
2022/04/04 11:04:00;;;;;;;14.40;12.90;;;4.70;99.90;;;;;;5049655;28;20504;-65
2022/04/04 11:09:34;;;;;;;14.03;12.40;;;4.80;99.90;;;;;;5062014;28;20553;-65
2022/04/04 11:12:12;;;;;;;13.30;11.90;;;4.70;99.90;;;;;;5043053;28;21036;-65
2022/04/04 11:14:54;;;;;;;12.97;11.60;;;4.80;99.90;;;;;;5037149;28;20481;-65
2022/04/04 11:17:41;;;;;;;13.10;11.80;;;4.80;99.90;;;;;;5053377;28;20470;-65
2022/04/04 11:20:32;;;;;;;12.00;10.60;;;4.90;99.90;;;;;;5053103;28;21068;-64
2022/04/04 11:23:03;;;;;;;12.37;11.17;;;4.90;99.90;;;;;;5047751;28;20473;-65
2022/04/04 11:25:35;;;;;;;11.47;10.27;;;5.00;99.90;;;;;;5047483;28;20619;-65
2022/04/04 11:28:04;;;;;;;11.50;10.40;;;5.00;99.90;;;;;;5051654;28;20533;-65
2022/04/04 11:30:32;;;;;;;10.37;9.27;;;5.00;99.90;;;;;;5050475;28;20489;-65
2022/04/04 11:33:00;;;;;;;9.60;8.70;;;5.00;99.90;;;;;;5052785;28;20968;-65
2022/04/04 11:35:32;;;;;;;9.87;8.97;;;5.10;99.90;;;;;;5053267;28;20477;-65
2022/04/04 11:38:03;;;;;;;9.27;8.37;;;5.10;99.90;;;;;;5040128;28;20485;-65
2022/04/04 11:40:37;;;;;;;9.93;8.37;;;5.10;99.90;;;;;;5047536;28;20485;-65
2022/04/04 11:43:07;;;;;;;9.37;8.47;;;5.20;99.90;;;;;;5050601;28;20575;-65
2022/04/04 11:45:37;;;;;;;8.53;7.73;;;5.20;99.90;;;;;;5043036;28;20555;-65
2022/04/04 11:48:10;;;;;;;8.87;7.97;;;5.20;99.90;;;;;;5033116;28;20482;-65
2022/04/04 11:50:40;;;;;;;9.10;8.10;;;5.20;99.90;;;;;;5031802;28;20489;-66
2022/04/04 11:53:10;;;;;;;8.13;7.40;;;5.20;99.90;;;;;;5031530;28;20474;-65
2022/04/04 11:55:41;;;;;;;8.43;7.53;;;5.30;99.90;;;;;;5026377;28;20836;-66
2022/04/04 11:58:12;;;;;;;7.43;6.73;;;5.30;99.90;;;;;;5028850;28;20475;-66
2022/04/04 12:00:42;;;;;;;8.60;7.67;;;5.30;99.90;;;;;;5038059;28;20297;-65
2022/04/04 12:03:12;;;;;;;8.13;7.33;;;5.40;99.90;;;;;;5052064;28;20718;-66
2022/04/04 12:05:41;;;;;;;7.30;6.60;;;5.40;99.90;;;;;;5033627;28;20321;-65
2022/04/04 12:08:10;;;;;;;7.53;6.83;;;5.40;99.90;;;;;;5032497;28;20525;-65
2022/04/04 12:10:40;;;;;;;7.93;7.17;;;5.40;99.90;;;;;;5034004;28;20236;-65
2022/04/04 12:13:10;;;;;;;7.40;6.70;;;5.40;99.90;;;;;;5032129;28;20553;-65
2022/04/04 12:15:42;;;;;;;7.40;6.70;;;5.50;99.90;;;;;;5045843;28;20482;-66
2022/04/04 12:18:13;;;;;;;7.73;6.50;;;5.50;99.90;;;;;;5052142;28;20479;-65
2022/04/04 12:20:42;;;;;;;6.40;5.80;;;5.60;99.90;;;;;;5051187;28;21063;-65
2022/04/04 12:26:01;;;;;;;4.97;4.57;;;5.60;99.90;;;;;;5042258;28;20330;-65
2022/04/04 12:28:33;;;;;;;6.23;5.63;;;5.70;99.90;;;;;;5050823;28;21000;-65
2022/04/04 12:31:11;;;;;;;5.43;5.00;;;5.70;99.90;;;;;;5037009;28;20711;-65
2022/04/04 12:33:39;;;;;;;5.00;4.60;;;5.70;99.90;;;;;;5032244;28;20235;-65
2022/04/04 12:36:08;;;;;;;5.20;4.70;;;5.70;99.90;;;;;;5033361;28;20474;-65
2022/04/04 12:38:39;;;;;;;5.10;4.70;;;5.70;99.90;;;;;;5031944;28;20498;-65
2022/04/04 12:41:13;;;;;;;4.67;4.27;;;5.80;99.90;;;;;;5041709;28;20503;-65
2022/04/04 12:43:44;;;;;;;5.90;5.40;;;5.90;99.90;;;;;;5041376;28;20525;-65
2022/04/04 12:46:24;;;;;;;5.70;5.20;;;5.90;99.90;;;;;;5055801;28;20254;-65
2022/04/04 12:49:09;;;;;;;6.13;5.60;;;5.90;99.90;;;;;;5048295;28;20466;-65
2022/04/04 12:51:38;;;;;;;5.93;5.33;;;5.90;99.90;;;;;;5045179;28;20284;-65
2022/04/04 12:54:06;;;;;;;5.00;4.60;;;5.90;99.90;;;;;;5051549;28;20245;-65
2022/04/04 12:56:50;;;;;;;5.17;4.63;;;6.00;99.90;;;;;;5031877;28;20652;-65
2022/04/04 12:59:19;;;;;;;4.87;3.97;;;6.00;99.90;;;;;;5033997;28;20562;-65
2022/04/04 13:02:03;;;;;;;4.90;4.43;;;6.00;99.90;;;;;;5048497;28;20223;-65
2022/04/04 13:04:32;;;;;;;4.93;4.53;;;6.10;99.90;;;;;;5045204;28;20231;-65
2022/04/04 13:07:03;;;;;;;4.73;4.33;;;6.10;99.90;;;;;;5045567;28;20578;-65
2022/04/04 13:09:34;;;;;;;4.57;4.00;;;6.00;99.90;;;;;;5031466;28;20247;-65
2022/04/04 13:12:04;;;;;;;4.53;4.13;;;6.00;99.90;;;;;;5042996;28;20259;-65
2022/04/04 13:14:48;;;;;;;4.20;3.80;;;6.10;99.90;;;;;;5047884;28;20672;-65